Naikai Maru No.15 — JD3631 — position and weather

sailwx.info

Track history (hours):
 
Tides and Currents Weather Stations Pressure Air Temp Water Temp Dewpoint Dewpoint Depression Visibility Wind Speed Wind Dir Waves Ship Positions

Naikai Maru No.15

Last reported at 2018-Jul-18 12:49 UTC. Time now 2018-Jul-22 16:43 UTC.
Position N 34°57' E 139°44'.

Length 75 m; draft 3 m.

Type: Cargo ship. MMSI: 431005104.

Date/timePositionNaut miles runAvg speedWind from/ knotsBaromVisibWave heightAir tempDewpointWater temp
2018-Jul-18 12:49N 34°57' E 139°44'412.6
2018-Jul-18 12:30N 35°01' E 139°44'612.6
2018-Jul-18 12:00N 35°07' E 139°45'612.6
2018-Jul-18 11:30N 35°13' E 139°47'1111.3
2018-Jul-18 10:31N 35°24' E 139°43'510.5
2018-Jul-18 10:00N 35°30' E 139°43'1 2.4
2018-Jul-18 09:30N 35°31' E 139°44'0 0.0
2018-Jul-18 08:59N 35°31' E 139°44'0 0.0
2018-Jul-18 08:30N 35°31' E 139°44'0 0.0
2018-Jul-18 08:00N 35°31' E 139°44'0 0.0
2018-Jul-17 12:32N 35°31' E 139°44'0 0.4
2018-Jul-17 12:30N 35°31' E 139°44'0 0.1
2018-Jul-17 12:00N 35°31' E 139°44'3 6.2
2018-Jul-17 11:30N 35°30' E 139°48'2 4.2
2018-Jul-17 11:00N 35°30' E 139°50'0 0.0
2018-Jul-17 10:30N 35°30' E 139°50'0 0.0
2018-Jul-17 09:55N 35°30' E 139°50'0 0.0
2018-Jul-17 09:30N 35°30' E 139°50'0 0.0
2018-Jul-17 08:57N 35°30' E 139°50'0 0.0
2018-Jul-17 08:30N 35°30' E 139°50'0 0.0
2018-Jul-17 08:00N 35°30' E 139°50'0 0.0
2018-Jul-17 07:29N 35°30' E 139°50'0 0.1
2018-Jul-17 07:00N 35°30' E 139°50'0 0.1
2018-Jul-17 06:27N 35°30' E 139°50'4 8.9
2018-Jul-17 06:00N 35°33' E 139°54'8 1.1
2018-Jul-16 23:06N 35°39' E 139°59'1 0.0
2018-Jul-15 22:46N 35°41' E 139°59'5 0.4
2018-Jul-15 09:11N 35°36' E 139°60'2 1.6
2018-Jul-15 07:41N 35°34' E 140°02'211.8
2018-Jul-15 07:30N 35°34' E 140°05'2 4.7
2018-Jul-15 07:00N 35°34' E 140°08'0 0.0
2018-Jul-15 06:30N 35°34' E 140°08'0 0.0
2018-Jul-15 06:00N 35°34' E 140°08'0 0.1
2018-Jul-15 05:28N 35°34' E 140°08'0 0.0
2018-Jul-15 05:00N 35°34' E 140°08'0 0.1
2018-Jul-15 04:06N 35°34' E 140°08'0 0.0
2018-Jul-15 04:00N 35°34' E 140°08'0 0.0
2018-Jul-15 03:29N 35°34' E 140°08'0 0.0
2018-Jul-15 02:59N 35°34' E 140°08'0 0.1
2018-Jul-15 02:30N 35°34' E 140°08'0 0.1
2018-Jul-15 01:42N 35°34' E 140°08'0 0.0
2018-Jul-15 00:45N 35°34' E 140°08'0 0.0
2018-Jul-15 00:28N 35°34' E 140°08'0 0.0
2018-Jul-15 00:00N 35°34' E 140°08'0 0.0
2018-Jul-14 23:28N 35°34' E 140°08'12 1.7
2018-Jul-14 16:33N 35°30' E 139°54'212.6
2018-Jul-14 16:26N 35°29' E 139°53'512.4
2018-Jul-14 16:00N 35°26' E 139°48'612.6
2018-Jul-14 15:30N 35°20' E 139°44'611.7
2018-Jul-14 15:00N 35°14' E 139°47'612.0
2018-Jul-14 14:30N 35°09' E 139°45'1212.0
2018-Jul-14 13:30N 34°60' E 139°35'23611.3
2018-Jul-13 16:34N 33°52' E 135°01'113.2
2018-Jul-13 16:30N 33°52' E 135°01'713.1
2018-Jul-13 16:00N 33°57' E 134°56'713.0
2018-Jul-13 15:27N 34°03' E 134°50'1113.2
2018-Jul-13 14:36N 34°12' E 134°41'113.7
2018-Jul-13 14:31N 34°12' E 134°40'8 1.6
2018-Jul-13 09:19N 34°17' E 134°32'412.9
2018-Jul-13 09:00N 34°18' E 134°27'612.8
2018-Jul-13 08:30N 34°21' E 134°20'2 0.0
2018-Jul-11 19:49N 34°22' E 134°22'412.6
2018-Jul-11 19:30N 34°20' E 134°26'2112.5
2018-Jul-11 17:50N 34°07' E 134°46'412.3
2018-Jul-11 17:30N 34°04' E 134°49'712.3
2018-Jul-11 16:57N 33°58' E 134°55'612.6
2018-Jul-11 16:30N 33°54' E 134°59'  
Track history (hours):
 
Tides and Currents Weather Stations Pressure Air Temp Water Temp Dewpoint Dewpoint Depression Visibility Wind Speed Wind Dir Waves Ship Positions

Naikai Maru No.15

Last reported at 2018-Jul-18 12:49 UTC. Time now 2018-Jul-22 16:43 UTC.
Position N 34°57' E 139°44'.

Length 75 m; draft 3 m.

Type: Cargo ship. MMSI: 431005104.

Date/timePositionNaut miles runAvg speedWind from/ knotsBaromVisibWave heightAir tempDewpointWater temp
2018-Jul-18 12:49N 34°57' E 139°44'412.6
2018-Jul-18 12:30N 35°01' E 139°44'612.6
2018-Jul-18 12:00N 35°07' E 139°45'612.6
2018-Jul-18 11:30N 35°13' E 139°47'1111.3
2018-Jul-18 10:31N 35°24' E 139°43'510.5
2018-Jul-18 10:00N 35°30' E 139°43'1 2.4
2018-Jul-18 09:30N 35°31' E 139°44'0 0.0
2018-Jul-18 08:59N 35°31' E 139°44'0 0.0
2018-Jul-18 08:30N 35°31' E 139°44'0 0.0
2018-Jul-18 08:00N 35°31' E 139°44'0 0.0
2018-Jul-17 12:32N 35°31' E 139°44'0 0.4
2018-Jul-17 12:30N 35°31' E 139°44'0 0.1
2018-Jul-17 12:00N 35°31' E 139°44'3 6.2
2018-Jul-17 11:30N 35°30' E 139°48'2 4.2
2018-Jul-17 11:00N 35°30' E 139°50'0 0.0
2018-Jul-17 10:30N 35°30' E 139°50'0 0.0
2018-Jul-17 09:55N 35°30' E 139°50'0 0.0
2018-Jul-17 09:30N 35°30' E 139°50'0 0.0
2018-Jul-17 08:57N 35°30' E 139°50'0 0.0
2018-Jul-17 08:30N 35°30' E 139°50'0 0.0
2018-Jul-17 08:00N 35°30' E 139°50'0 0.0
2018-Jul-17 07:29N 35°30' E 139°50'0 0.1
2018-Jul-17 07:00N 35°30' E 139°50'0 0.1
2018-Jul-17 06:27N 35°30' E 139°50'4 8.9
2018-Jul-17 06:00N 35°33' E 139°54'8 1.1
2018-Jul-16 23:06N 35°39' E 139°59'1 0.0
2018-Jul-15 22:46N 35°41' E 139°59'5 0.4
2018-Jul-15 09:11N 35°36' E 139°60'2 1.6
2018-Jul-15 07:41N 35°34' E 140°02'211.8
2018-Jul-15 07:30N 35°34' E 140°05'2 4.7
2018-Jul-15 07:00N 35°34' E 140°08'0 0.0
2018-Jul-15 06:30N 35°34' E 140°08'0 0.0
2018-Jul-15 06:00N 35°34' E 140°08'0 0.1
2018-Jul-15 05:28N 35°34' E 140°08'0 0.0
2018-Jul-15 05:00N 35°34' E 140°08'0 0.1
2018-Jul-15 04:06N 35°34' E 140°08'0 0.0
2018-Jul-15 04:00N 35°34' E 140°08'0 0.0
2018-Jul-15 03:29N 35°34' E 140°08'0 0.0
2018-Jul-15 02:59N 35°34' E 140°08'0 0.1
2018-Jul-15 02:30N 35°34' E 140°08'0 0.1
2018-Jul-15 01:42N 35°34' E 140°08'0 0.0
2018-Jul-15 00:45N 35°34' E 140°08'0 0.0
2018-Jul-15 00:28N 35°34' E 140°08'0 0.0
2018-Jul-15 00:00N 35°34' E 140°08'0 0.0
2018-Jul-14 23:28N 35°34' E 140°08'12 1.7
2018-Jul-14 16:33N 35°30' E 139°54'212.6
2018-Jul-14 16:26N 35°29' E 139°53'512.4
2018-Jul-14 16:00N 35°26' E 139°48'612.6
2018-Jul-14 15:30N 35°20' E 139°44'611.7
2018-Jul-14 15:00N 35°14' E 139°47'612.0
2018-Jul-14 14:30N 35°09' E 139°45'1212.0
2018-Jul-14 13:30N 34°60' E 139°35'23611.3
2018-Jul-13 16:34N 33°52' E 135°01'113.2
2018-Jul-13 16:30N 33°52' E 135°01'713.1
2018-Jul-13 16:00N 33°57' E 134°56'713.0
2018-Jul-13 15:27N 34°03' E 134°50'1113.2
2018-Jul-13 14:36N 34°12' E 134°41'113.7
2018-Jul-13 14:31N 34°12' E 134°40'8 1.6
2018-Jul-13 09:19N 34°17' E 134°32'412.9
2018-Jul-13 09:00N 34°18' E 134°27'612.8
2018-Jul-13 08:30N 34°21' E 134°20'2 0.0
2018-Jul-11 19:49N 34°22' E 134°22'412.6
2018-Jul-11 19:30N 34°20' E 134°26'2112.5
2018-Jul-11 17:50N 34°07' E 134°46'412.3
2018-Jul-11 17:30N 34°04' E 134°49'712.3
2018-Jul-11 16:57N 33°58' E 134°55'612.6
2018-Jul-11 16:30N 33°54' E 134°59'  

Dump ship's entire track history